Pearsall, TX (78061)

12:01 AM CDT on September 15, 2014 (GMT -0500)
Friotown | Change Station
CLOSE
Current Station
Personal Weather Station
Location: Pearsall, TX
Elevation: 696 ft
Nearby Weather Stations

Elev 696 ft 29.05 °N, 99.40 °W | Updated 15 minutes ago

Partly Cloudy
Partly Cloudy
75.1 °F
Feels Like 76 °F
N
0.0
Wind Variable Wind from SSE
Gusts 0.0 mph

Today
High -- | Low -- °F
--% Chance of Precip.
Yesterday
High -- | Low -- °F
Precip. -- in
7:21 AM 7:41 PM
Waning Gibbous, 59% visible
Pressure 30.10 in
Visibility 10.0 miles
Clouds Clear
Heat Index 76 °F
Dew Point 68 °F
Humidity 79%
Rainfall 0.00 in
Snow Depth Not available.
UV 0.0 out of 12
Pollen 9.20 out of 12
Air Quality Not available.
Flu Activity Not available.
METAR KCOT 150453Z AUTO 09006KT 10SM CLR 24/19 A3012 RMK AO2 SLP192 T02390194 $

More Conditions Fewer Conditions

Pressure 30.10 in
Visibility 10.0 miles
Clouds Clear
Heat Index 76 °F
Dew Point 68 °F
Humidity 79%
Rainfall 0.00 in
Snow Depth Not available.
UV 0.0 out of 12
Pollen 9.20 out of 12
Air Quality Not available.
Flu Activity Not available.
METAR KCOT 150453Z AUTO 09006KT 10SM CLR 24/19 A3012 RMK AO2 SLP192 T02390194 $

More Conditions Fewer Conditions

10-Day Weather Forecast

Almanac

Astronomy

Sep. 15, 2014 Rise Set
Actual Time 7:21 AM CDT 7:41 PM CDT
Civil Twilight 6:57 AM CDT 8:04 PM CDT
Nautical Twilight 6:29 AM CDT 8:32 PM CDT
Astronomical Twilight 6:01 AM CDT 9:00 PM CDT
Moon 12:03 AM CDT 1:55 PM CDT
Length of Visible Light 13h 07m
Length of Day
12h 20m
Tomorrow will be 1m 43s shorter.
Waning Gibbous, 59% of the Moon is Illuminated
Today
Waning Gibbous
Sep 15
Last Quarter
Sep 24
New
Oct 1
First Quarter
Oct 8
Full

Today's Extremes

State Highs State Lows

Community

WunderPhotos

Upload Photos

1,753,411 photos uploaded!

Nearby

Snow Depth

Station Depth Elevation
No new snow has been reported.

Earthquake Activity

City Distance Mag. Time & Date
No recent earthquake activity has been reported nearby.
Minimum magnitude displayed is 2.5.

Coastal Water Temperatures

Place Temperature
No Stations Reporting

Nearby Weather Stations